Time;durP1;ratioP1;P1;durP2;ratioP2;P2;SDS_P1;SDS_P2;PMS_P1;PMS_P2;Temp;Humidity;BMP_temperature;BMP_pressure;BME280_temperature;BME280_humidity;BME280_pressure;Samples;Min_cycle;Max_cycle;Signal;HPM_P1;HPM_P2
2023/04/26 00:01:52;;;;;;;5.82;3.30;;;3.90;99.90;;;;;;5112576;27;20028;-56
2023/04/26 00:04:18;;;;;;;6.53;3.20;;;3.80;99.90;;;;;;5108228;27;20047;-56
2023/04/26 00:06:44;;;;;;;9.63;3.45;;;3.80;99.90;;;;;;5099917;27;20171;-55
2023/04/26 00:09:10;;;;;;;10.00;3.42;;;3.70;99.90;;;;;;5111646;27;20182;-55
2023/04/26 00:11:35;;;;;;;11.65;3.83;;;3.70;99.90;;;;;;5108176;27;20149;-56
2023/04/26 00:14:01;;;;;;;11.93;4.05;;;3.70;99.90;;;;;;5096117;27;20077;-51
2023/04/26 00:16:27;;;;;;;7.03;3.38;;;3.80;99.90;;;;;;5112246;27;20053;-55
2023/04/26 00:18:53;;;;;;;13.27;4.22;;;3.70;99.90;;;;;;5109995;27;20424;-55
2023/04/26 00:21:18;;;;;;;6.32;3.30;;;3.60;99.90;;;;;;5113843;27;20564;-55
2023/04/26 00:23:44;;;;;;;7.97;3.17;;;3.60;99.90;;;;;;5119285;27;20084;-56
2023/04/26 00:26:10;;;;;;;7.35;3.35;;;3.60;99.90;;;;;;5108048;27;20043;-56
2023/04/26 00:28:35;;;;;;;7.63;3.70;;;3.60;99.90;;;;;;5109441;27;20050;-56
2023/04/26 00:31:01;;;;;;;10.23;3.58;;;3.60;99.90;;;;;;5107486;27;20031;-55
2023/04/26 00:33:27;;;;;;;11.57;4.40;;;3.50;99.90;;;;;;5104547;27;20024;-55
2023/04/26 00:35:52;;;;;;;8.75;3.40;;;3.50;99.90;;;;;;5111655;27;20040;-55
2023/04/26 00:38:18;;;;;;;10.45;3.88;;;3.50;99.90;;;;;;5098446;27;20043;-56
2023/04/26 00:40:44;;;;;;;12.75;3.75;;;3.60;99.90;;;;;;5106250;27;20564;-55
2023/04/26 00:43:10;;;;;;;7.50;3.88;;;3.50;99.90;;;;;;5108821;27;20394;-55
2023/04/26 00:45:36;;;;;;;11.27;4.00;;;3.50;99.90;;;;;;5105640;27;20128;-56
2023/04/26 00:48:02;;;;;;;7.93;3.35;;;3.40;99.90;;;;;;5091230;27;20039;-55
2023/04/26 00:50:30;;;;;;;11.05;4.20;;;3.40;99.90;;;;;;5108840;27;20051;-55
2023/04/26 00:52:56;;;;;;;8.52;3.97;;;3.30;99.90;;;;;;5108848;27;20098;-56
2023/04/26 00:55:23;;;;;;;9.18;3.92;;;3.30;99.90;;;;;;5103940;27;20532;-55
2023/04/26 00:57:48;;;;;;;7.15;3.50;;;3.30;99.90;;;;;;5119226;27;20027;-55
2023/04/26 01:00:15;;;;;;;8.50;4.13;;;3.30;99.90;;;;;;5099981;27;20039;-55
2023/04/26 01:02:41;;;;;;;10.10;3.75;;;3.30;99.90;;;;;;5102615;27;20038;-55
2023/04/26 01:05:08;;;;;;;8.98;3.85;;;3.20;99.90;;;;;;5112189;27;20039;-55
2023/04/26 01:07:35;;;;;;;12.30;3.97;;;3.30;99.90;;;;;;5105299;27;20036;-55
2023/04/26 01:10:04;;;;;;;7.63;3.60;;;3.20;99.90;;;;;;5113757;27;20118;-55
2023/04/26 01:12:31;;;;;;;12.40;4.00;;;3.20;99.90;;;;;;5112018;27;20027;-56
2023/04/26 01:14:58;;;;;;;8.30;3.72;;;3.20;99.90;;;;;;5111468;27;20042;-55
2023/04/26 01:17:24;;;;;;;8.57;3.90;;;3.20;99.90;;;;;;5105247;27;20470;-55
2023/04/26 01:19:50;;;;;;;8.30;3.88;;;3.10;99.90;;;;;;5103412;27;20113;-56
2023/04/26 01:22:16;;;;;;;6.80;3.83;;;3.00;99.90;;;;;;5115770;27;20035;-56
2023/04/26 01:24:45;;;;;;;7.35;4.03;;;3.00;99.90;;;;;;5105696;27;20072;-55
2023/04/26 01:27:11;;;;;;;9.65;4.47;;;3.00;99.90;;;;;;5093625;27;20031;-56
2023/04/26 01:29:37;;;;;;;10.52;4.45;;;2.90;99.90;;;;;;5111170;27;20048;-55
2023/04/26 01:32:02;;;;;;;9.15;4.07;;;3.00;99.90;;;;;;5109458;27;20230;-56
2023/04/26 01:34:28;;;;;;;10.75;4.90;;;2.90;99.90;;;;;;5108829;27;20107;-55
2023/04/26 01:36:54;;;;;;;8.68;4.47;;;2.90;99.90;;;;;;5106206;27;20059;-55
2023/04/26 01:39:19;;;;;;;9.80;4.30;;;2.90;99.90;;;;;;5105100;27;20123;-55
2023/04/26 01:41:45;;;;;;;9.02;4.40;;;2.80;99.90;;;;;;5110021;27;20031;-56
2023/04/26 01:44:10;;;;;;;9.82;4.20;;;2.80;99.90;;;;;;5111722;27;20031;-55
2023/04/26 01:46:36;;;;;;;6.95;4.30;;;2.80;99.90;;;;;;5106101;28;20055;-55
2023/04/26 01:49:02;;;;;;;9.70;4.63;;;2.80;99.90;;;;;;5080029;28;20039;-56
2023/04/26 01:51:27;;;;;;;10.18;5.00;;;2.80;99.90;;;;;;5104875;27;20046;-56
2023/04/26 01:53:53;;;;;;;11.85;4.65;;;2.80;99.90;;;;;;5102852;28;20039;-55
2023/04/26 01:56:19;;;;;;;7.43;4.43;;;2.80;99.90;;;;;;5114598;28;20115;-55
2023/04/26 01:58:45;;;;;;;8.55;4.90;;;2.80;99.90;;;;;;5118259;28;20470;-55
2023/04/26 02:01:10;;;;;;;7.95;5.00;;;2.80;99.90;;;;;;5102370;28;20035;-55
2023/04/26 02:03:36;;;;;;;10.25;4.95;;;2.80;99.90;;;;;;5108756;28;20188;-55
2023/04/26 02:06:02;;;;;;;10.98;5.20;;;2.70;99.90;;;;;;5106869;28;20058;-55
2023/04/26 02:08:28;;;;;;;8.57;4.70;;;2.80;99.90;;;;;;5113907;28;20039;-55
2023/04/26 02:10:54;;;;;;;13.38;5.38;;;2.70;99.90;;;;;;5104509;28;20096;-55
2023/04/26 02:13:20;;;;;;;12.48;5.30;;;2.70;99.90;;;;;;5110997;27;20043;-55
2023/04/26 02:15:47;;;;;;;11.82;4.95;;;2.70;99.90;;;;;;5112978;28;20545;-55
2023/04/26 02:18:14;;;;;;;13.25;5.70;;;2.80;99.90;;;;;;5102821;28;20266;-55
2023/04/26 02:20:44;;;;;;;8.93;4.80;;;2.70;99.90;;;;;;5112937;28;20110;-55
2023/04/26 02:23:10;;;;;;;10.07;5.68;;;2.70;99.90;;;;;;5109806;28;20080;-55
2023/04/26 02:25:36;;;;;;;9.95;5.55;;;2.60;99.90;;;;;;5107491;28;20489;-55
2023/04/26 02:28:03;;;;;;;11.50;5.65;;;2.60;99.90;;;;;;5104378;28;20032;-55
2023/04/26 02:30:29;;;;;;;13.57;5.82;;;2.60;99.90;;;;;;5102844;28;20048;-55
2023/04/26 02:32:55;;;;;;;10.20;5.90;;;2.60;99.90;;;;;;5112396;28;20040;-55
2023/04/26 02:35:21;;;;;;;12.10;6.07;;;2.60;99.90;;;;;;5109553;27;20042;-55
2023/04/26 02:37:51;;;;;;;8.65;5.28;;;2.50;99.90;;;;;;5107934;27;20028;-55
2023/04/26 02:40:17;;;;;;;10.57;5.70;;;2.60;99.90;;;;;;5110727;27;20023;-55
2023/04/26 02:42:44;;;;;;;10.32;5.68;;;2.60;99.90;;;;;;5112315;27;20109;-55
2023/04/26 02:45:09;;;;;;;12.10;6.15;;;2.50;99.90;;;;;;5114166;27;20370;-55
2023/04/26 02:47:37;;;;;;;9.30;5.95;;;2.40;99.90;;;;;;5116254;27;20031;-54
2023/04/26 02:50:04;;;;;;;10.20;5.47;;;2.40;99.90;;;;;;5114532;27;20420;-54
2023/04/26 02:52:29;;;;;;;10.45;6.13;;;2.40;99.90;;;;;;5106962;27;20108;-55
2023/04/26 02:54:55;;;;;;;11.18;6.47;;;2.40;99.90;;;;;;5107172;27;20817;-56
2023/04/26 02:57:21;;;;;;;12.43;6.30;;;2.30;99.90;;;;;;5111628;27;20131;-55
2023/04/26 02:59:46;;;;;;;12.13;6.38;;;2.40;99.90;;;;;;5116331;27;20031;-55
2023/04/26 03:02:12;;;;;;;10.48;6.10;;;2.40;99.90;;;;;;5117773;27;20128;-55
2023/04/26 03:04:38;;;;;;;12.13;5.97;;;2.40;99.90;;;;;;5116307;27;20046;-55
2023/04/26 03:07:04;;;;;;;9.38;5.57;;;2.40;99.90;;;;;;5114501;27;20043;-55
2023/04/26 03:09:30;;;;;;;10.95;6.32;;;2.30;99.90;;;;;;5111641;27;20031;-55
2023/04/26 03:11:55;;;;;;;9.77;5.85;;;2.30;99.90;;;;;;5101973;27;20142;-55
2023/04/26 03:14:21;;;;;;;13.18;6.65;;;2.20;99.90;;;;;;5104538;27;20039;-55
2023/04/26 03:16:47;;;;;;;12.65;6.80;;;2.20;99.90;;;;;;5106054;27;20527;-55
2023/04/26 03:19:13;;;;;;;13.43;6.38;;;2.20;99.90;;;;;;5113940;27;20148;-55
2023/04/26 03:21:39;;;;;;;14.77;6.60;;;2.30;99.90;;;;;;5111658;27;20038;-55
2023/04/26 03:24:05;;;;;;;13.25;7.40;;;2.20;99.90;;;;;;5113061;27;20081;-55
2023/04/26 03:26:30;;;;;;;16.92;7.53;;;2.20;99.90;;;;;;5107643;27;20047;-55
2023/04/26 03:28:56;;;;;;;10.80;6.50;;;2.30;99.90;;;;;;5113685;27;20582;-55
2023/04/26 03:31:22;;;;;;;14.35;6.85;;;2.30;99.90;;;;;;5098117;27;20048;-55
2023/04/26 03:33:48;;;;;;;15.50;6.90;;;2.20;99.90;;;;;;5119654;27;20407;-55
2023/04/26 03:36:14;;;;;;;10.95;6.82;;;2.20;99.90;;;;;;5098682;27;20043;-55
2023/04/26 03:38:39;;;;;;;15.27;6.82;;;2.10;99.90;;;;;;5114919;27;20034;-55
2023/04/26 03:41:05;;;;;;;13.13;7.82;;;2.10;99.90;;;;;;5106275;27;20464;-55
2023/04/26 03:43:31;;;;;;;12.30;6.53;;;2.10;99.90;;;;;;5111420;27;20035;-55
2023/04/26 03:45:56;;;;;;;11.43;6.97;;;2.10;99.90;;;;;;5104615;27;20482;-54
2023/04/26 03:48:22;;;;;;;11.27;6.70;;;2.10;99.90;;;;;;5117824;27;20035;-55
2023/04/26 03:50:48;;;;;;;12.82;7.25;;;2.20;99.90;;;;;;5109978;27;20439;-56
2023/04/26 03:53:13;;;;;;;12.25;7.18;;;2.20;99.90;;;;;;5108258;27;20352;-55
2023/04/26 03:55:39;;;;;;;17.35;7.57;;;2.10;99.90;;;;;;5110276;27;20039;-55
2023/04/26 03:58:06;;;;;;;11.70;7.47;;;2.20;99.90;;;;;;5108718;27;20439;-55
2023/04/26 04:00:36;;;;;;;11.75;7.15;;;2.20;99.90;;;;;;5106837;27;20427;-55
2023/04/26 04:03:02;;;;;;;15.75;8.55;;;2.10;99.90;;;;;;5088789;27;20521;-54
2023/04/26 04:05:28;;;;;;;18.05;8.40;;;2.00;99.90;;;;;;5110145;27;20032;-55
2023/04/26 04:07:55;;;;;;;16.80;8.23;;;2.10;99.90;;;;;;5106535;27;20115;-54
2023/04/26 04:10:22;;;;;;;14.80;7.35;;;2.10;99.90;;;;;;5101134;27;20031;-55
2023/04/26 04:12:48;;;;;;;16.10;8.20;;;2.10;99.90;;;;;;5116120;27;20068;-54
2023/04/26 04:15:13;;;;;;;14.35;8.00;;;2.00;99.90;;;;;;5090160;28;20463;-55
2023/04/26 04:17:39;;;;;;;14.20;8.20;;;2.00;99.90;;;;;;5106980;27;20059;-55
2023/04/26 04:20:06;;;;;;;17.30;8.60;;;2.00;99.90;;;;;;5112578;27;20031;-54
2023/04/26 04:22:32;;;;;;;12.65;7.95;;;2.00;99.90;;;;;;5113505;27;20027;-55
2023/04/26 04:24:58;;;;;;;13.43;7.80;;;2.00;99.90;;;;;;5101547;27;20093;-55
2023/04/26 04:27:27;;;;;;;16.40;8.10;;;2.00;99.90;;;;;;5113268;27;20044;-54
2023/04/26 04:29:54;;;;;;;15.45;8.13;;;2.00;99.90;;;;;;5114013;27;20067;-55
2023/04/26 04:32:20;;;;;;;15.82;8.77;;;2.00;99.90;;;;;;5109731;27;20043;-55
2023/04/26 04:34:45;;;;;;;14.00;8.93;;;2.00;99.90;;;;;;5116088;27;20131;-55
2023/04/26 04:37:11;;;;;;;18.52;9.00;;;2.00;99.90;;;;;;5109900;27;20140;-55
2023/04/26 04:39:37;;;;;;;19.95;8.73;;;2.00;99.90;;;;;;5115813;27;20108;-55
2023/04/26 04:42:03;;;;;;;18.38;9.15;;;2.00;99.90;;;;;;5109136;27;20031;-54
2023/04/26 04:44:28;;;;;;;20.52;9.98;;;2.00;99.90;;;;;;5113947;27;20606;-55
2023/04/26 04:46:55;;;;;;;19.20;9.10;;;2.10;99.90;;;;;;5108630;27;20078;-55
2023/04/26 04:49:21;;;;;;;19.48;9.90;;;2.10;99.90;;;;;;5114178;27;21365;-54
2023/04/26 04:51:46;;;;;;;20.77;10.38;;;2.20;99.90;;;;;;5112826;27;20034;-55
2023/04/26 04:54:14;;;;;;;17.98;10.80;;;2.20;99.90;;;;;;5116894;27;20040;-55
2023/04/26 04:56:40;;;;;;;18.83;10.00;;;2.20;99.90;;;;;;5102340;27;20380;-55
2023/04/26 04:59:06;;;;;;;18.98;10.73;;;2.30;99.90;;;;;;5112060;27;20031;-55
2023/04/26 05:01:33;;;;;;;18.50;10.05;;;2.30;99.90;;;;;;5112156;27;20038;-55
2023/04/26 05:03:59;;;;;;;19.85;10.30;;;2.30;99.90;;;;;;5129402;27;20035;-55
2023/04/26 05:06:28;;;;;;;21.83;10.93;;;2.30;99.90;;;;;;5106755;27;20042;-54
2023/04/26 05:08:55;;;;;;;16.70;9.82;;;2.40;99.90;;;;;;5107516;27;20499;-55
2023/04/26 05:11:20;;;;;;;23.42;11.75;;;2.50;99.90;;;;;;5107186;27;20027;-55
2023/04/26 05:13:47;;;;;;;21.20;11.25;;;2.50;99.90;;;;;;5117344;27;20428;-54
2023/04/26 05:16:13;;;;;;;18.40;11.52;;;2.60;99.90;;;;;;5117677;27;20035;-54
2023/04/26 05:18:38;;;;;;;25.33;12.30;;;2.70;99.90;;;;;;5101118;27;20038;-54
2023/04/26 05:21:04;;;;;;;22.75;13.13;;;3.00;99.90;;;;;;5117356;27;20039;-55
2023/04/26 05:23:30;;;;;;;24.88;13.15;;;3.00;99.90;;;;;;5110783;27;20049;-53
2023/04/26 05:25:56;;;;;;;19.83;11.77;;;3.20;99.90;;;;;;5108557;27;20497;-55
2023/04/26 05:28:22;;;;;;;21.85;12.80;;;3.30;99.90;;;;;;5108888;27;20054;-55
2023/04/26 05:30:48;;;;;;;26.30;13.00;;;3.40;99.90;;;;;;5105734;28;20138;-55
2023/04/26 05:33:14;;;;;;;24.00;13.27;;;3.40;99.90;;;;;;5103827;27;20084;-55
2023/04/26 05:35:40;;;;;;;27.48;14.02;;;3.50;99.90;;;;;;5101242;27;20032;-56
2023/04/26 05:38:06;;;;;;;24.38;13.63;;;3.80;99.90;;;;;;5109450;27;20045;-55
2023/04/26 05:40:31;;;;;;;32.33;15.30;;;4.00;99.90;;;;;;5105921;27;20027;-56
2023/04/26 05:42:57;;;;;;;24.13;13.75;;;4.30;99.90;;;;;;5107142;27;20473;-56
2023/04/26 05:45:22;;;;;;;28.40;13.40;;;4.30;99.90;;;;;;5103493;27;20028;-55
2023/04/26 05:47:48;;;;;;;26.95;13.98;;;4.50;99.90;;;;;;5104732;28;20359;-55
2023/04/26 05:50:14;;;;;;;26.98;14.20;;;4.60;99.90;;;;;;5105260;28;20040;-55
2023/04/26 05:52:39;;;;;;;30.80;15.48;;;4.70;99.90;;;;;;5100475;27;20572;-55
2023/04/26 05:55:05;;;;;;;31.50;14.73;;;4.90;99.90;;;;;;5101232;28;20183;-56
2023/04/26 05:57:31;;;;;;;33.53;14.68;;;5.00;99.90;;;;;;5099018;28;20500;-56
2023/04/26 05:59:57;;;;;;;30.05;15.00;;;5.00;99.90;;;;;;5099009;28;20033;-56
2023/04/26 06:02:22;;;;;;;28.25;15.10;;;5.30;99.90;;;;;;5109043;28;20042;-56
2023/04/26 06:04:48;;;;;;;27.60;14.48;;;5.40;99.90;;;;;;5109619;28;20033;-55
2023/04/26 06:07:15;;;;;;;27.27;13.85;;;5.60;99.90;;;;;;5097991;28;20502;-55
2023/04/26 06:09:41;;;;;;;31.20;14.45;;;5.60;99.90;;;;;;5101391;27;20359;-56
2023/04/26 06:12:07;;;;;;;26.52;13.38;;;5.60;99.90;;;;;;5099122;27;20342;-55
2023/04/26 06:14:33;;;;;;;27.17;13.30;;;5.70;99.90;;;;;;5108643;27;20063;-56
2023/04/26 06:16:58;;;;;;;31.58;13.30;;;5.90;99.90;;;;;;5102385;27;20044;-56
2023/04/26 06:19:24;;;;;;;31.92;14.43;;;5.80;99.90;;;;;;5106256;27;20028;-55
2023/04/26 06:21:53;;;;;;;25.88;13.57;;;5.80;99.90;;;;;;5109332;27;20414;-55
2023/04/26 06:24:19;;;;;;;25.10;13.30;;;5.90;99.90;;;;;;5112009;27;20031;-55
2023/04/26 06:26:45;;;;;;;26.05;13.25;;;5.90;99.90;;;;;;5106802;27;20043;-55
2023/04/26 06:29:10;;;;;;;34.85;13.75;;;5.90;99.90;;;;;;5108558;27;20048;-55
2023/04/26 06:31:36;;;;;;;25.35;13.23;;;6.00;99.90;;;;;;5106594;27;20063;-55
2023/04/26 06:34:02;;;;;;;28.52;13.23;;;6.00;99.90;;;;;;5111577;27;20035;-53
2023/04/26 06:36:27;;;;;;;25.35;13.02;;;6.30;99.90;;;;;;5110204;27;20039;-55
2023/04/26 06:38:53;;;;;;;26.38;12.80;;;6.40;99.90;;;;;;5119156;27;20434;-55
2023/04/26 06:41:21;;;;;;;25.85;11.88;;;6.60;99.90;;;;;;5102713;27;20126;-55
2023/04/26 06:43:46;;;;;;;24.80;12.45;;;6.70;99.90;;;;;;5102559;27;20112;-55
2023/04/26 06:46:12;;;;;;;24.30;11.73;;;6.60;99.90;;;;;;5104820;27;20035;-55
2023/04/26 06:48:38;;;;;;;25.05;12.43;;;6.60;99.90;;;;;;5106976;27;20039;-55
2023/04/26 06:51:07;;;;;;;23.05;11.32;;;6.80;99.90;;;;;;5096637;27;20747;-55
2023/04/26 06:53:36;;;;;;;22.52;11.05;;;6.60;99.90;;;;;;5113529;27;20089;-55
2023/04/26 06:56:01;;;;;;;21.10;11.57;;;6.60;99.90;;;;;;5107080;27;20039;-52
2023/04/26 06:58:27;;;;;;;26.50;12.75;;;6.70;99.90;;;;;;5104941;27;20042;-56
2023/04/26 07:00:53;;;;;;;22.50;9.93;;;7.00;99.90;;;;;;5111367;27;20118;-55
2023/04/26 07:03:18;;;;;;;17.20;9.73;;;7.10;99.90;;;;;;5109745;27;20024;-55
2023/04/26 07:05:44;;;;;;;19.50;7.88;;;7.10;99.90;;;;;;5101613;27;20534;-55
2023/04/26 07:08:10;;;;;;;19.58;8.27;;;7.10;99.90;;;;;;5106684;27;20304;-55
2023/04/26 07:10:38;;;;;;;15.68;6.93;;;6.90;99.90;;;;;;5111755;27;20039;-55
2023/04/26 07:13:03;;;;;;;17.00;8.52;;;7.10;99.90;;;;;;5115977;27;20497;-55
2023/04/26 07:15:30;;;;;;;16.58;8.15;;;7.30;99.90;;;;;;5111845;27;20031;-55
2023/04/26 07:17:55;;;;;;;23.33;8.43;;;7.60;99.90;;;;;;5105087;27;20679;-56
2023/04/26 07:20:22;;;;;;;14.85;8.27;;;7.70;99.90;;;;;;5113182;27;20039;-55
2023/04/26 07:22:48;;;;;;;18.88;7.82;;;7.90;99.90;;;;;;5108834;27;20127;-56
2023/04/26 07:25:14;;;;;;;15.40;5.25;;;8.00;99.90;;;;;;5106889;27;20138;-56
2023/04/26 07:27:40;;;;;;;15.25;4.10;;;8.10;99.90;;;;;;5108523;27;20037;-55
2023/04/26 07:30:06;;;;;;;11.63;3.92;;;8.20;99.90;;;;;;5112970;27;20124;-56
2023/04/26 07:32:31;;;;;;;11.77;4.90;;;7.90;99.90;;;;;;5111529;27;20034;-56
2023/04/26 07:34:57;;;;;;;13.95;4.45;;;8.00;99.90;;;;;;5104186;27;20039;-55
2023/04/26 07:37:22;;;;;;;11.75;4.88;;;7.80;99.90;;;;;;5102275;27;20118;-56
2023/04/26 07:39:48;;;;;;;10.75;5.45;;;7.80;99.90;;;;;;5095222;27;20039;-55
2023/04/26 07:42:14;;;;;;;18.00;4.25;;;7.90;99.90;;;;;;5102956;27;20063;-56
2023/04/26 07:44:40;;;;;;;14.80;5.80;;;8.00;99.90;;;;;;5107422;27;20035;-56
2023/04/26 07:47:12;;;;;;;16.58;6.22;;;8.20;99.90;;;;;;5105470;27;20039;-56
2023/04/26 07:49:37;;;;;;;16.70;6.45;;;8.40;99.90;;;;;;5106326;27;20081;-56
2023/04/26 07:52:03;;;;;;;15.25;7.22;;;8.50;99.90;;;;;;5099170;27;20039;-56
2023/04/26 07:54:28;;;;;;;17.58;6.72;;;8.70;99.90;;;;;;5084331;28;20448;-56
2023/04/26 07:56:54;;;;;;;15.38;5.40;;;8.70;99.90;;;;;;5111280;27;20417;-56
2023/04/26 07:59:20;;;;;;;13.55;4.95;;;8.50;99.90;;;;;;5101841;27;20031;-55
2023/04/26 08:01:45;;;;;;;11.88;5.07;;;8.20;99.90;;;;;;5100470;27;20035;-56
2023/04/26 08:04:11;;;;;;;16.13;6.22;;;8.00;99.90;;;;;;5091764;28;20055;-56
2023/04/26 08:06:38;;;;;;;13.30;6.18;;;8.30;99.90;;;;;;5103565;27;20137;-56
2023/04/26 08:09:04;;;;;;;19.70;6.53;;;8.30;99.90;;;;;;5079563;28;20774;-56
2023/04/26 08:11:29;;;;;;;14.82;6.47;;;8.40;99.90;;;;;;5096060;27;20036;-56
2023/04/26 08:13:55;;;;;;;16.02;6.80;;;8.50;99.90;;;;;;5100072;28;20439;-56
2023/04/26 08:16:20;;;;;;;12.90;4.47;;;8.40;99.90;;;;;;5089879;27;20043;-56
2023/04/26 08:18:46;;;;;;;14.85;4.70;;;8.40;99.90;;;;;;5112242;27;20126;-56
2023/04/26 08:21:12;;;;;;;7.13;3.97;;;8.30;99.90;;;;;;5095289;27;20054;-56
2023/04/26 08:23:37;;;;;;;12.73;5.40;;;8.30;99.90;;;;;;5088599;27;20040;-56
2023/04/26 08:26:03;;;;;;;10.07;4.85;;;8.40;99.90;;;;;;5098775;27;20081;-56
2023/04/26 08:28:29;;;;;;;15.30;5.68;;;8.60;99.90;;;;;;5096484;27;20501;-57
2023/04/26 08:30:54;;;;;;;17.27;5.68;;;8.60;99.90;;;;;;5100869;27;20115;-56
2023/04/26 08:33:20;;;;;;;13.05;6.47;;;8.30;99.90;;;;;;5099026;27;20067;-56
2023/04/26 08:35:46;;;;;;;18.38;5.93;;;8.20;99.90;;;;;;5091495;27;20032;-56
2023/04/26 08:38:12;;;;;;;15.05;6.20;;;8.40;99.90;;;;;;5073772;28;20414;-56
2023/04/26 08:40:40;;;;;;;108.50;66.05;;;8.70;99.90;;;;;;5088946;27;20038;-55
2023/04/26 08:43:09;;;;;;;14.02;6.22;;;8.80;99.90;;;;;;5099365;27;20132;-56
2023/04/26 08:45:39;;;;;;;15.80;6.38;;;9.10;99.90;;;;;;5101598;27;20032;-56
2023/04/26 08:48:10;;;;;;;13.25;6.32;;;9.10;99.90;;;;;;5098730;28;20110;-56
2023/04/26 08:50:38;;;;;;;13.70;6.65;;;9.10;99.90;;;;;;5095692;27;20039;-56
2023/04/26 08:53:04;;;;;;;13.25;6.60;;;9.20;99.90;;;;;;5103717;27;20146;-56
2023/04/26 08:55:31;;;;;;;15.88;6.85;;;9.00;99.90;;;;;;5096473;27;20028;-56
2023/04/26 08:57:57;;;;;;;15.35;6.63;;;9.00;99.90;;;;;;5094096;27;20751;-56
2023/04/26 09:00:23;;;;;;;10.93;5.60;;;8.90;99.90;;;;;;5105597;27;20658;-56
2023/04/26 09:02:50;;;;;;;13.25;5.63;;;8.70;99.90;;;;;;5086408;28;20032;-56
2023/04/26 09:05:16;;;;;;;12.13;5.90;;;8.80;99.90;;;;;;5099270;27;20118;-56
2023/04/26 09:07:44;;;;;;;17.90;9.23;;;8.80;99.90;;;;;;5103566;27;20483;-55
2023/04/26 09:10:11;;;;;;;18.38;9.13;;;9.00;99.90;;;;;;5104308;27;20089;-56
2023/04/26 09:12:37;;;;;;;15.85;6.78;;;9.00;99.90;;;;;;5112755;27;20491;-56
2023/04/26 09:15:06;;;;;;;13.02;5.90;;;8.70;99.90;;;;;;5104825;27;20660;-55
2023/04/26 09:17:36;;;;;;;11.65;5.55;;;9.00;99.90;;;;;;5109174;27;20035;-56
2023/04/26 09:20:17;;;;;;;14.50;5.10;;;9.10;99.90;;;;;;5101748;27;20125;-55
2023/04/26 09:22:44;;;;;;;14.27;5.60;;;9.30;99.90;;;;;;5101027;27;20376;-56
2023/04/26 09:25:12;;;;;;;13.68;5.30;;;9.40;99.90;;;;;;5108622;27;20043;-56
2023/04/26 09:27:42;;;;;;;12.43;4.68;;;9.60;99.90;;;;;;5116792;27;20114;-56
2023/04/26 09:30:16;;;;;;;11.07;4.20;;;10.00;99.90;;;;;;5104631;27;20035;-55
2023/04/26 09:32:50;;;;;;;10.43;4.07;;;10.30;99.90;;;;;;5121635;27;20064;-56
2023/04/26 09:35:26;;;;;;;10.50;4.00;;;10.40;99.90;;;;;;5105835;27;20523;-56
2023/04/26 09:38:02;;;;;;;12.18;3.50;;;10.40;99.90;;;;;;5108817;27;20055;-56
2023/04/26 09:40:30;;;;;;;11.80;3.75;;;10.20;99.90;;;;;;5110859;27;20043;-56
2023/04/26 09:43:03;;;;;;;10.23;3.53;;;10.10;99.90;;;;;;5107518;27;20039;-56
2023/04/26 09:45:30;;;;;;;10.45;3.90;;;9.90;99.90;;;;;;5089453;28;20038;-56
2023/04/26 09:48:15;;;;;;;9.25;4.43;;;10.00;99.90;;;;;;5118573;27;20096;-56
2023/04/26 09:50:43;;;;;;;11.45;3.58;;;10.00;99.90;;;;;;5108334;27;20621;-57
2023/04/26 09:53:09;;;;;;;8.05;3.70;;;10.00;99.90;;;;;;5110401;28;20478;-55
2023/04/26 09:55:35;;;;;;;12.52;3.72;;;10.10;99.90;;;;;;5107960;28;20376;-56
2023/04/26 09:58:08;;;;;;;8.07;3.30;;;10.10;99.90;;;;;;5096031;27;20048;-56
2023/04/26 10:00:33;;;;;;;;;;;10.10;99.90;;;;;;5102674;28;20387;-56
2023/04/26 10:03:00;;;;;;;7.20;3.08;;;10.20;99.90;;;;;;5072928;28;19968;-56
2023/04/26 10:05:26;;;;;;;7.80;3.25;;;9.80;99.90;;;;;;5105973;27;20122;-56
2023/04/26 10:07:51;;;;;;;8.27;3.45;;;9.30;99.90;;;;;;5109272;27;20134;-56
2023/04/26 10:10:17;;;;;;;6.43;2.60;;;9.40;99.90;;;;;;5112506;27;20036;-56
2023/04/26 10:12:43;;;;;;;6.95;2.83;;;9.40;99.90;;;;;;5108580;27;20039;-56
2023/04/26 10:15:10;;;;;;;8.95;2.65;;;9.40;99.90;;;;;;5110754;27;20458;-56
2023/04/26 10:17:39;;;;;;;7.80;3.08;;;9.30;99.90;;;;;;5108759;28;20046;-56
2023/04/26 10:20:10;;;;;;;10.20;3.40;;;9.50;99.90;;;;;;5113958;28;20451;-56
2023/04/26 10:22:44;;;;;;;11.82;3.17;;;9.10;99.90;;;;;;5102499;27;20043;-56
2023/04/26 10:25:10;;;;;;;4.85;2.40;;;9.20;99.90;;;;;;5103288;28;20043;-56
2023/04/26 10:27:42;;;;;;;6.80;2.70;;;9.40;99.90;;;;;;5092031;28;20093;-56
2023/04/26 10:30:09;;;;;;;11.32;3.10;;;9.30;99.90;;;;;;5115108;27;20058;-56
2023/04/26 10:32:53;;;;;;;8.15;2.72;;;9.20;99.90;;;;;;5112820;28;20494;-56
2023/04/26 10:35:20;;;;;;;7.97;2.75;;;9.40;99.90;;;;;;5101153;28;20761;-56
2023/04/26 10:38:01;;;;;;;6.65;2.80;;;9.70;99.90;;;;;;5103982;28;20066;-56
2023/04/26 10:40:27;;;;;;;7.70;2.47;;;9.80;99.90;;;;;;5098309;28;20048;-56
2023/04/26 10:43:14;;;;;;;8.90;3.00;;;10.00;99.90;;;;;;5102757;28;20040;-56
2023/04/26 10:45:41;;;;;;;8.35;2.90;;;10.00;99.90;;;;;;5111357;28;20043;-55
2023/04/26 10:48:18;;;;;;;8.40;2.63;;;9.70;99.90;;;;;;5106149;28;20042;-56
2023/04/26 10:51:07;;;;;;;8.05;2.70;;;9.60;99.90;;;;;;5092641;28;20043;-56
2023/04/26 10:53:45;;;;;;;5.68;2.70;;;9.60;99.90;;;;;;5102918;28;20042;-56
2023/04/26 10:56:31;;;;;;;9.23;3.03;;;9.80;99.90;;;;;;5095088;27;20071;-56
2023/04/26 10:59:10;;;;;;;6.10;2.83;;;10.30;99.90;;;;;;5083404;27;20378;-56
2023/04/26 11:01:36;;;;;;;6.65;2.47;;;10.30;99.90;;;;;;5097975;27;20703;-56
2023/04/26 11:04:10;;;;;;;6.68;3.03;;;10.20;99.90;;;;;;5102372;27;20032;-56
2023/04/26 11:06:51;;;;;;;;;;;10.10;99.90;;;;;;5113776;27;20292;-56
2023/04/26 11:09:36;;;;;;;5.95;2.72;;;9.80;99.90;;;;;;5105066;27;19915;-56
2023/04/26 11:12:06;;;;;;;7.00;2.60;;;9.90;99.90;;;;;;5117932;27;20032;-56
2023/04/26 11:14:36;;;;;;;6.05;2.40;;;10.10;99.90;;;;;;5100435;27;20062;-56
2023/04/26 11:17:05;;;;;;;6.47;2.47;;;10.30;99.90;;;;;;5106829;27;20585;-54
2023/04/26 11:19:32;;;;;;;7.85;3.38;;;9.90;99.90;;;;;;5104811;27;20042;-57
2023/04/26 11:22:01;;;;;;;9.38;2.70;;;10.10;99.90;;;;;;5113153;27;20062;-55
2023/04/26 11:24:28;;;;;;;11.40;3.10;;;9.90;99.90;;;;;;5114742;27;20046;-56
2023/04/26 11:26:54;;;;;;;9.32;2.80;;;9.70;99.90;;;;;;5090562;27;20064;-56
2023/04/26 11:29:20;;;;;;;6.07;2.53;;;9.80;99.90;;;;;;5112248;27;20040;-56
2023/04/26 11:31:52;;;;;;;9.45;2.50;;;9.90;99.90;;;;;;5120942;27;20044;-57
2023/04/26 11:34:38;;;;;;;11.88;3.65;;;10.30;99.90;;;;;;5112793;27;20038;-57
2023/04/26 11:37:04;;;;;;;7.60;2.58;;;10.50;99.90;;;;;;5107646;27;20387;-56
2023/04/26 11:39:34;;;;;;;11.45;3.10;;;10.50;99.90;;;;;;5114056;27;20044;-57
2023/04/26 11:42:08;;;;;;;7.40;3.95;;;10.30;99.90;;;;;;5105947;27;20394;-57
2023/04/26 11:44:34;;;;;;;7.53;2.90;;;10.10;99.90;;;;;;5095408;27;20038;-56
2023/04/26 11:47:07;;;;;;;7.13;2.72;;;10.30;99.90;;;;;;5106370;27;20040;-56
2023/04/26 11:49:35;;;;;;;5.90;2.65;;;10.30;99.90;;;;;;5106524;27;20529;-57
2023/04/26 11:52:02;;;;;;;6.10;2.50;;;10.00;99.90;;;;;;5111238;27;20779;-57
2023/04/26 11:54:34;;;;;;;5.95;2.63;;;10.20;99.90;;;;;;5078705;27;20027;-56
2023/04/26 11:57:03;;;;;;;10.40;3.30;;;10.00;99.90;;;;;;5112769;27;20103;-57
2023/04/26 11:59:29;;;;;;;6.88;2.92;;;10.20;99.90;;;;;;5101921;27;20039;-57
2023/04/26 12:02:00;;;;;;;6.32;3.22;;;10.30;99.90;;;;;;5100946;27;20040;-57
2023/04/26 12:04:28;;;;;;;5.07;2.53;;;10.10;99.90;;;;;;5107378;27;20157;-57
2023/04/26 12:06:54;;;;;;;5.82;2.50;;;10.20;99.90;;;;;;5111875;27;20403;-57
2023/04/26 12:09:23;;;;;;;7.72;2.50;;;10.20;99.90;;;;;;5110609;27;20043;-57
2023/04/26 12:12:00;;;;;;;7.60;2.78;;;10.20;99.90;;;;;;5096024;27;20044;-57
2023/04/26 12:14:37;;;;;;;5.32;2.50;;;10.30;99.90;;;;;;5095353;27;20035;-56
2023/04/26 12:17:04;;;;;;;6.82;2.67;;;10.50;99.90;;;;;;5109553;27;20506;-57
2023/04/26 12:19:37;;;;;;;6.82;2.33;;;11.00;99.90;;;;;;5109754;27;20031;-56
2023/04/26 12:22:07;;;;;;;9.03;2.50;;;11.30;99.90;;;;;;5109042;27;20669;-57
2023/04/26 12:24:35;;;;;;;8.60;2.30;;;11.30;99.90;;;;;;5104530;27;20074;-57
2023/04/26 12:27:03;;;;;;;6.47;2.63;;;11.50;99.90;;;;;;5102916;27;20035;-57
2023/04/26 12:29:29;;;;;;;6.93;2.95;;;11.50;99.90;;;;;;5108848;27;20040;-57
2023/04/26 12:31:55;;;;;;;8.75;2.95;;;11.50;99.90;;;;;;5097318;27;20092;-57
2023/04/26 12:34:21;;;;;;;8.05;3.03;;;11.30;99.90;;;;;;5110685;27;20066;-57
2023/04/26 12:36:47;;;;;;;6.50;2.90;;;11.00;99.90;;;;;;5106044;27;20035;-56
2023/04/26 12:39:14;;;;;;;8.65;3.42;;;11.00;99.90;;;;;;5101378;27;20475;-57
2023/04/26 12:41:40;;;;;;;7.50;3.20;;;11.20;99.90;;;;;;5109186;27;20115;-57
2023/04/26 12:44:07;;;;;;;10.10;3.38;;;11.10;99.90;;;;;;5105475;27;20047;-57
2023/04/26 12:46:34;;;;;;;9.63;3.08;;;11.50;99.90;;;;;;5103325;27;20602;-57
2023/04/26 12:48:59;;;;;;;8.23;3.13;;;11.30;99.90;;;;;;5111951;27;20499;-57